Wye Mills, MD

11:35 AM EST on February 27, 2015 (GMT -0500)
Dover Air Force Base | Change Station
CLOSE
Current Station
Airport
Location: Dover AFB,
Elevation: 30 ft
Nearby Weather Stations

Elev 30 ft 39.13 °N, 75.47 °W | Updated 37 minutes ago

Overcast
Overcast
28 °F
Feels Like 18 °F
N
12
Wind Variable Wind from North

Today
High -- | Low -- °F
--% Chance of Precip.
Yesterday
High -- | Low -- °F
Precip. -- in
6:38 AM 5:53 PM
Waxing Gibbous, 70% visible
Pressure 30.42 in
Visibility 10.0 miles
Clouds Overcast 1700 ft
Windchill 18 °F
Dew Point 23 °F
Humidity 81%
Rainfall 0.00 in
Snow Depth Not available.
UV 2 out of 12
Pollen .20 out of 12
Air Quality Not available.
Flu Activity Not available.
METAR KDOV 271558Z AUTO 35010KT 330V040 10SM OVC017 M02/M05 A3041 RMK AO2 UPB33E43 SLP301 P0000 T10241052

More Conditions Fewer Conditions

Pressure 30.42 in
Visibility 10.0 miles
Clouds Overcast 1700 ft
Windchill 18 °F
Dew Point 23 °F
Humidity 81%
Rainfall 0.00 in
Snow Depth Not available.
UV 2 out of 12
Pollen .20 out of 12
Air Quality Not available.
Flu Activity Not available.
METAR KDOV 271558Z AUTO 35010KT 330V040 10SM OVC017 M02/M05 A3041 RMK AO2 UPB33E43 SLP301 P0000 T10241052

More Conditions Fewer Conditions

10-Day Weather Forecast

Almanac

Astronomy

Feb. 27, 2015 Rise Set
Actual Time
Civil Twilight
Nautical Twilight
Astronomical Twilight
Moon
Length of Visible Light
Length of Day
Tomorrow will be .
, % of the Moon is Illuminated

Today's Extremes

State Highs State Lows

Community

WunderPhotos

Upload Photos

1,800,731 photos uploaded!

WunderBlogs® & News

Nearby

Air Quality

  Air Quality AQ Index Pollutant
Not available.

Snow Depth

Station Depth Elevation

Earthquake Activity

City Distance Mag. Time & Date
Minimum magnitude displayed is 2.5.

Coastal Water Temperatures

Place Temperature

Nearby Weather Stations